Terminal Aerodrome Forecast
Issued by NWS

Home | Current Version | Previous Version | Text Only | Print | Product List | Glossary On
Versions: 1 2 3 4 5 6 7 8 9 10 11 12 13 14 15 16 17 18 19 20 21 22 23 24 25 26 27 28 29 30 31 32 33 34 35 36 37 38 39 40 41 42 43 44
000
FTUS44 KHGX 271757 AAA
TAFCXO
TAF AMD
KCXO 271757Z 2718/2818 33015G20KT 4SM BR VCTS OVC007CB
      TEMPO 2718/2719 VRB15G30KT 1SM TSRA BR OVC005CB
     FM280100 35014G20KT 6SM -RA BR OVC009
     FM280900 35010KT 3SM -RA BR OVC009=

USA.gov is the U.S. government's official web portal to all federal, state and local government web resources and services.